Costa Luminosa — ICGU — position and weather

sailwx.info

Track history (hours):
 
Tides and Currents Weather Stations Pressure Air Temp Water Temp Dewpoint Dewpoint Depression Visibility Wind Speed Wind Dir Waves Ship Positions

Costa Luminosa

Last reported at 2014-Oct-31 04:33 UTC. Time now 2014-Oct-31 05:02 UTC.
Position N 41°15' E 002°37'.

Length 294 m; draft 8.1 m.

Type: Passenger vessel. MMSI: 247257900.

Date/timePositionNaut miles runAvg speedWind from/ knotsBaromVisibWave heightAir tempDewpointWater temp
2014-Oct-31 04:33N 41°15' E 002°37'1311.9
2014-Oct-31 03:28N 41°15' E 002°54'1212.5
2014-Oct-31 02:32N 41°16' E 003°10'1212.1
2014-Oct-31 01:31N 41°16' E 003°27'1312.1
2014-Oct-31 00:28N 41°16' E 003°43'2211.1
2014-Oct-30 22:27N 41°16' E 004°13'2110.3
2014-Oct-30 20:22N 41°16' E 004°42'910.5
2014-Oct-30 19:30N 41°16' E 004°54'1210.2
2014-Oct-30 18:18N 41°17' E 005°10'2210.5
2014-Oct-30 16:15N 41°17' E 005°39'4712.1
2014-Oct-30 12:19N 41°17' E 006°42'185 5.5
2014-Oct-29 02:33N 42°24' E 010°33'1614.0
2014-Oct-29 01:24N 42°34' E 010°16'2713.9
2014-Oct-28 23:28N 42°51' E 009°48'1313.6
2014-Oct-28 22:33N 42°60' E 009°36'1313.4
2014-Oct-28 21:33N 43°11' E 009°27'1413.7
2014-Oct-28 20:33N 43°23' E 009°17'1414.0
2014-Oct-28 19:33N 43°35' E 009°08'1414.0
2014-Oct-28 18:33N 43°47' E 008°58'1413.6
2014-Oct-28 17:33N 43°59' E 008°48'1413.6
2014-Oct-28 16:33N 44°11' E 008°38'1010.3
2014-Oct-28 15:33N 44°19' E 008°29'0 0.0
2014-Oct-28 14:33N 44°19' E 008°29'0 0.0
2014-Oct-28 13:33N 44°19' E 008°29'0 0.0
2014-Oct-28 12:27N 44°19' E 008°29'0 0.0
2014-Oct-28 11:33N 44°19' E 008°29'0 0.0
2014-Oct-28 10:21N 44°19' E 008°29'0 0.0
2014-Oct-28 09:33N 44°19' E 008°29'0 0.0
2014-Oct-28 08:33N 44°19' E 008°29'0 0.1
2014-Oct-28 07:34N 44°19' E 008°29'7 7.0
2014-Oct-28 06:33N 44°12' E 008°29'1615.6
2014-Oct-28 05:33N 43°58' E 008°18'4514.7
2014-Oct-28 02:28N 43°28' E 007°31'1415.0
2014-Oct-28 01:33N 43°20' E 007°16'1514.9
2014-Oct-28 00:34N 43°11' E 007°01'1414.5
2014-Oct-27 23:34N 43°02' E 006°45'1414.1
2014-Oct-27 22:34N 42°56' E 006°27'1514.7
2014-Oct-27 21:34N 42°57' E 006°07'1514.9
2014-Oct-27 20:33N 43°01' E 005°48'1514.9
2014-Oct-27 19:32N 43°06' E 005°28'1414.0
2014-Oct-27 18:33N 43°16' E 005°15'6 0.6
2014-Oct-27 07:31N 43°21' E 005°20'9 9.4
2014-Oct-27 06:34N 43°15' E 005°10'1211.9
2014-Oct-27 05:32N 43°05' E 005°02'12915.4
2014-Oct-26 21:06N 41°36' E 002°55'1215.9
2014-Oct-26 20:22N 41°30' E 002°41'2612.7
2014-Oct-26 18:21N 41°19' E 002°10'2 1.1
2014-Oct-26 16:20N 41°21' E 002°11'0 0.0
2014-Oct-26 10:32N 41°21' E 002°11'0 0.0
2014-Oct-26 09:32N 41°21' E 002°11'0 0.0
2014-Oct-26 08:32N 41°21' E 002°11'0 0.3
2014-Oct-26 07:32N 41°21' E 002°10'7 7.6
2014-Oct-26 06:33N 41°15' E 002°15'1312.8
2014-Oct-26 05:33N 41°13' E 002°32'1212.1
2014-Oct-26 04:33N 41°12' E 002°48'1312.6
2014-Oct-26 03:33N 41°15' E 003°04'1313.3
2014-Oct-26 02:33N 41°16' E 003°22'1010.5
2014-Oct-26 01:33N 41°22' E 003°34'1212.2
2014-Oct-26 00:33N 41°16' E 003°48'1110.7
2014-Oct-25 23:33N 41°16' E 004°02'1410.0
2014-Oct-25 22:08N 41°16' E 004°21'16 9.5
2014-Oct-25 20:30N 41°16' E 004°42'10 9.3
2014-Oct-25 19:28N 41°16' E 004°55'11 9.4
2014-Oct-25 18:20N 41°17' E 005°09'8 9.6
2014-Oct-25 17:32N 41°18' E 005°19'1210.3
2014-Oct-25 16:24N 41°19' E 005°35'1011.0
2014-Oct-25 15:28N 41°21' E 005°48'1010.7
2014-Oct-25 14:31N 41°23' E 006°01'2310.9
2014-Oct-25 12:23N 41°17' E 006°31'1312.3
2014-Oct-25 11:18N 41°18' E 006°49'1214.4
2014-Oct-25 10:27N 41°18' E 007°05'3712.0
2014-Oct-25 07:23N 41°18' E 007°54'138 4.7
2014-Oct-24 02:06N 42°19' E 010°40'814.2
2014-Oct-24 01:33N 42°25' E 010°32'1413.9
2014-Oct-24 00:33N 42°33' E 010°17'2814.1
2014-Oct-23 22:33N 42°51' E 009°48'1413.7
2014-Oct-23 21:32N 43°01' E 009°34'1413.8
2014-Oct-23 20:34N 43°13' E 009°24'1413.8
2014-Oct-23 19:33N 43°25' E 009°15'1413.6
2014-Oct-23 18:33N 43°37' E 009°06'1413.7
2014-Oct-23 17:33N 43°48' E 008°56'1413.8
2014-Oct-23 16:33N 44°00' E 008°46'1413.9
2014-Oct-23 15:33N 44°12' E 008°37'8 7.6
2014-Oct-23 14:28N 44°19' E 008°29'0 0.0
2014-Oct-23 13:31N 44°19' E 008°29'0 0.0
2014-Oct-23 12:28N 44°19' E 008°29'0 0.0
2014-Oct-23 11:31N 44°19' E 008°29'0 0.0
2014-Oct-23 10:31N 44°19' E 008°29'0 0.0
2014-Oct-23 09:31N 44°19' E 008°29'0 0.0
2014-Oct-23 08:31N 44°19' E 008°29'0 0.0
2014-Oct-23 07:31N 44°19' E 008°29'0 0.0
2014-Oct-23 06:25N 44°19' E 008°29'3 3.0
2014-Oct-23 05:33N 44°17' E 008°32'1212.1
2014-Oct-23 04:33N 44°06' E 008°24'1313.1
2014-Oct-23 03:33N 43°55' E 008°15'3213.7
2014-Oct-23 01:13N 43°34' E 007°41'1015.8
2014-Oct-23 00:33N 43°27' E 007°30'1514.9
2014-Oct-22 23:33N 43°18' E 007°14'1515.0
2014-Oct-22 22:34N 43°09' E 006°58'1414.5
2014-Oct-22 21:34N 43°00' E 006°42'1613.9
2014-Oct-22 20:23N 42°56' E 006°20'1214.8
2014-Oct-22 19:34N 42°57' E 006°04'1515.0
2014-Oct-22 18:33N 43°02' E 005°44'2217.8
2014-Oct-22 17:20N 43°12' E 005°18'912.1
2014-Oct-22 16:33N 43°21' E 005°17'0 0.0
2014-Oct-22 15:20N 43°21' E 005°18'0 0.1
2014-Oct-22 14:20N 43°21' E 005°18'0 0.0
2014-Oct-22 13:32N 43°21' E 005°18'0 0.0
2014-Oct-22 12:23N 43°21' E 005°18'0 0.0
2014-Oct-22 11:20N 43°21' E 005°18'0 0.1
2014-Oct-22 10:26N 43°21' E 005°18'0 0.0
2014-Oct-22 09:26N 43°21' E 005°18'0 0.0
2014-Oct-22 08:26N 43°21' E 005°18'0 0.0
2014-Oct-22 07:26N 43°21' E 005°18'0 0.0
2014-Oct-22 06:33N 43°21' E 005°17'5 4.8
2014-Oct-22 05:33N 43°18' E 005°13'9 8.8
2014-Oct-22 04:34N 43°10' E 005°07'1817.5
2014-Oct-22 03:32N 43°04' E 004°44'9318.2
2014-Oct-21 22:25N 41°57' E 003°17'2216.5
2014-Oct-21 21:04N 41°38' E 003°00'1618.3
2014-Oct-21 20:11N 41°29' E 002°43'1618.2
2014-Oct-21 19:19N 41°20' E 002°25'1112.0
2014-Oct-21 18:22N 41°19' E 002°10'4 0.5
2014-Oct-21 10:21N 41°16' E 002°12'1515.3
2014-Oct-21 09:24N 41°21' E 002°30'1315.5
2014-Oct-21 08:33N 41°27' E 002°46'1815.8
2014-Oct-21 07:25N 41°35' E 003°07'1616.2
2014-Oct-21 06:27N 41°43' E 003°26'  
Track history (hours):
 
Tides and Currents Weather Stations Pressure Air Temp Water Temp Dewpoint Dewpoint Depression Visibility Wind Speed Wind Dir Waves Ship Positions

Costa Luminosa

Last reported at 2014-Oct-31 04:33 UTC. Time now 2014-Oct-31 05:02 UTC.
Position N 41°15' E 002°37'.

Length 294 m; draft 8.1 m.

Type: Passenger vessel. MMSI: 247257900.

Date/timePositionNaut miles runAvg speedWind from/ knotsBaromVisibWave heightAir tempDewpointWater temp
2014-Oct-31 04:33N 41°15' E 002°37'1311.9
2014-Oct-31 03:28N 41°15' E 002°54'1212.5
2014-Oct-31 02:32N 41°16' E 003°10'1212.1
2014-Oct-31 01:31N 41°16' E 003°27'1312.1
2014-Oct-31 00:28N 41°16' E 003°43'2211.1
2014-Oct-30 22:27N 41°16' E 004°13'2110.3
2014-Oct-30 20:22N 41°16' E 004°42'910.5
2014-Oct-30 19:30N 41°16' E 004°54'1210.2
2014-Oct-30 18:18N 41°17' E 005°10'2210.5
2014-Oct-30 16:15N 41°17' E 005°39'4712.1
2014-Oct-30 12:19N 41°17' E 006°42'185 5.5
2014-Oct-29 02:33N 42°24' E 010°33'1614.0
2014-Oct-29 01:24N 42°34' E 010°16'2713.9
2014-Oct-28 23:28N 42°51' E 009°48'1313.6
2014-Oct-28 22:33N 42°60' E 009°36'1313.4
2014-Oct-28 21:33N 43°11' E 009°27'1413.7
2014-Oct-28 20:33N 43°23' E 009°17'1414.0
2014-Oct-28 19:33N 43°35' E 009°08'1414.0
2014-Oct-28 18:33N 43°47' E 008°58'1413.6
2014-Oct-28 17:33N 43°59' E 008°48'1413.6
2014-Oct-28 16:33N 44°11' E 008°38'1010.3
2014-Oct-28 15:33N 44°19' E 008°29'0 0.0
2014-Oct-28 14:33N 44°19' E 008°29'0 0.0
2014-Oct-28 13:33N 44°19' E 008°29'0 0.0
2014-Oct-28 12:27N 44°19' E 008°29'0 0.0
2014-Oct-28 11:33N 44°19' E 008°29'0 0.0
2014-Oct-28 10:21N 44°19' E 008°29'0 0.0
2014-Oct-28 09:33N 44°19' E 008°29'0 0.0
2014-Oct-28 08:33N 44°19' E 008°29'0 0.1
2014-Oct-28 07:34N 44°19' E 008°29'7 7.0
2014-Oct-28 06:33N 44°12' E 008°29'1615.6
2014-Oct-28 05:33N 43°58' E 008°18'4514.7
2014-Oct-28 02:28N 43°28' E 007°31'1415.0
2014-Oct-28 01:33N 43°20' E 007°16'1514.9
2014-Oct-28 00:34N 43°11' E 007°01'1414.5
2014-Oct-27 23:34N 43°02' E 006°45'1414.1
2014-Oct-27 22:34N 42°56' E 006°27'1514.7
2014-Oct-27 21:34N 42°57' E 006°07'1514.9
2014-Oct-27 20:33N 43°01' E 005°48'1514.9
2014-Oct-27 19:32N 43°06' E 005°28'1414.0
2014-Oct-27 18:33N 43°16' E 005°15'6 0.6
2014-Oct-27 07:31N 43°21' E 005°20'9 9.4
2014-Oct-27 06:34N 43°15' E 005°10'1211.9
2014-Oct-27 05:32N 43°05' E 005°02'12915.4
2014-Oct-26 21:06N 41°36' E 002°55'1215.9
2014-Oct-26 20:22N 41°30' E 002°41'2612.7
2014-Oct-26 18:21N 41°19' E 002°10'2 1.1
2014-Oct-26 16:20N 41°21' E 002°11'0 0.0
2014-Oct-26 10:32N 41°21' E 002°11'0 0.0
2014-Oct-26 09:32N 41°21' E 002°11'0 0.0
2014-Oct-26 08:32N 41°21' E 002°11'0 0.3
2014-Oct-26 07:32N 41°21' E 002°10'7 7.6
2014-Oct-26 06:33N 41°15' E 002°15'1312.8
2014-Oct-26 05:33N 41°13' E 002°32'1212.1
2014-Oct-26 04:33N 41°12' E 002°48'1312.6
2014-Oct-26 03:33N 41°15' E 003°04'1313.3
2014-Oct-26 02:33N 41°16' E 003°22'1010.5
2014-Oct-26 01:33N 41°22' E 003°34'1212.2
2014-Oct-26 00:33N 41°16' E 003°48'1110.7
2014-Oct-25 23:33N 41°16' E 004°02'1410.0
2014-Oct-25 22:08N 41°16' E 004°21'16 9.5
2014-Oct-25 20:30N 41°16' E 004°42'10 9.3
2014-Oct-25 19:28N 41°16' E 004°55'11 9.4
2014-Oct-25 18:20N 41°17' E 005°09'8 9.6
2014-Oct-25 17:32N 41°18' E 005°19'1210.3
2014-Oct-25 16:24N 41°19' E 005°35'1011.0
2014-Oct-25 15:28N 41°21' E 005°48'1010.7
2014-Oct-25 14:31N 41°23' E 006°01'2310.9
2014-Oct-25 12:23N 41°17' E 006°31'1312.3
2014-Oct-25 11:18N 41°18' E 006°49'1214.4
2014-Oct-25 10:27N 41°18' E 007°05'3712.0
2014-Oct-25 07:23N 41°18' E 007°54'138 4.7
2014-Oct-24 02:06N 42°19' E 010°40'814.2
2014-Oct-24 01:33N 42°25' E 010°32'1413.9
2014-Oct-24 00:33N 42°33' E 010°17'2814.1
2014-Oct-23 22:33N 42°51' E 009°48'1413.7
2014-Oct-23 21:32N 43°01' E 009°34'1413.8
2014-Oct-23 20:34N 43°13' E 009°24'1413.8
2014-Oct-23 19:33N 43°25' E 009°15'1413.6
2014-Oct-23 18:33N 43°37' E 009°06'1413.7
2014-Oct-23 17:33N 43°48' E 008°56'1413.8
2014-Oct-23 16:33N 44°00' E 008°46'1413.9
2014-Oct-23 15:33N 44°12' E 008°37'8 7.6
2014-Oct-23 14:28N 44°19' E 008°29'0 0.0
2014-Oct-23 13:31N 44°19' E 008°29'0 0.0
2014-Oct-23 12:28N 44°19' E 008°29'0 0.0
2014-Oct-23 11:31N 44°19' E 008°29'0 0.0
2014-Oct-23 10:31N 44°19' E 008°29'0 0.0
2014-Oct-23 09:31N 44°19' E 008°29'0 0.0
2014-Oct-23 08:31N 44°19' E 008°29'0 0.0
2014-Oct-23 07:31N 44°19' E 008°29'0 0.0
2014-Oct-23 06:25N 44°19' E 008°29'3 3.0
2014-Oct-23 05:33N 44°17' E 008°32'1212.1
2014-Oct-23 04:33N 44°06' E 008°24'1313.1
2014-Oct-23 03:33N 43°55' E 008°15'3213.7
2014-Oct-23 01:13N 43°34' E 007°41'1015.8
2014-Oct-23 00:33N 43°27' E 007°30'1514.9
2014-Oct-22 23:33N 43°18' E 007°14'1515.0
2014-Oct-22 22:34N 43°09' E 006°58'1414.5
2014-Oct-22 21:34N 43°00' E 006°42'1613.9
2014-Oct-22 20:23N 42°56' E 006°20'1214.8
2014-Oct-22 19:34N 42°57' E 006°04'1515.0
2014-Oct-22 18:33N 43°02' E 005°44'2217.8
2014-Oct-22 17:20N 43°12' E 005°18'912.1
2014-Oct-22 16:33N 43°21' E 005°17'0 0.0
2014-Oct-22 15:20N 43°21' E 005°18'0 0.1
2014-Oct-22 14:20N 43°21' E 005°18'0 0.0
2014-Oct-22 13:32N 43°21' E 005°18'0 0.0
2014-Oct-22 12:23N 43°21' E 005°18'0 0.0
2014-Oct-22 11:20N 43°21' E 005°18'0 0.1
2014-Oct-22 10:26N 43°21' E 005°18'0 0.0
2014-Oct-22 09:26N 43°21' E 005°18'0 0.0
2014-Oct-22 08:26N 43°21' E 005°18'0 0.0
2014-Oct-22 07:26N 43°21' E 005°18'0 0.0
2014-Oct-22 06:33N 43°21' E 005°17'5 4.8
2014-Oct-22 05:33N 43°18' E 005°13'9 8.8
2014-Oct-22 04:34N 43°10' E 005°07'1817.5
2014-Oct-22 03:32N 43°04' E 004°44'9318.2
2014-Oct-21 22:25N 41°57' E 003°17'2216.5
2014-Oct-21 21:04N 41°38' E 003°00'1618.3
2014-Oct-21 20:11N 41°29' E 002°43'1618.2
2014-Oct-21 19:19N 41°20' E 002°25'1112.0
2014-Oct-21 18:22N 41°19' E 002°10'4 0.5
2014-Oct-21 10:21N 41°16' E 002°12'1515.3
2014-Oct-21 09:24N 41°21' E 002°30'1315.5
2014-Oct-21 08:33N 41°27' E 002°46'1815.8
2014-Oct-21 07:25N 41°35' E 003°07'1616.2
2014-Oct-21 06:27N 41°43' E 003°26'  

Dump ship's entire track history